sensor_id;sensor_type;location;lat;lon;timestamp;P1;durP1;ratioP1;P2;durP2;ratioP2
52708;SDS011;38606;52.986;6.980;2024-02-21T00:02:09;27.63;;;13.25;;
52708;SDS011;38606;52.986;6.980;2024-02-21T00:04:34;30.80;;;13.38;;
52708;SDS011;38606;52.986;6.980;2024-02-21T00:07:01;29.42;;;12.70;;
52708;SDS011;38606;52.986;6.980;2024-02-21T00:09:27;30.88;;;12.70;;
52708;SDS011;38606;52.986;6.980;2024-02-21T00:11:53;32.80;;;12.77;;
52708;SDS011;38606;52.986;6.980;2024-02-21T00:14:18;23.42;;;11.55;;
52708;SDS011;38606;52.986;6.980;2024-02-21T00:16:45;27.55;;;11.32;;
52708;SDS011;38606;52.986;6.980;2024-02-21T00:19:10;30.70;;;11.93;;
52708;SDS011;38606;52.986;6.980;2024-02-21T00:21:36;25.90;;;10.90;;
52708;SDS011;38606;52.986;6.980;2024-02-21T00:24:02;28.77;;;11.27;;
52708;SDS011;38606;52.986;6.980;2024-02-21T00:26:27;28.77;;;10.82;;
52708;SDS011;38606;52.986;6.980;2024-02-21T00:28:53;28.63;;;11.00;;
52708;SDS011;38606;52.986;6.980;2024-02-21T00:31:19;26.48;;;10.93;;
52708;SDS011;38606;52.986;6.980;2024-02-21T00:33:44;28.23;;;11.10;;
52708;SDS011;38606;52.986;6.980;2024-02-21T00:36:10;28.77;;;11.90;;
52708;SDS011;38606;52.986;6.980;2024-02-21T00:38:36;29.67;;;10.77;;
52708;SDS011;38606;52.986;6.980;2024-02-21T00:41:01;24.75;;;10.77;;
52708;SDS011;38606;52.986;6.980;2024-02-21T00:43:27;21.67;;;10.13;;
52708;SDS011;38606;52.986;6.980;2024-02-21T00:45:53;30.23;;;9.77;;
52708;SDS011;38606;52.986;6.980;2024-02-21T00:48:18;31.20;;;10.63;;
52708;SDS011;38606;52.986;6.980;2024-02-21T00:50:44;28.55;;;10.82;;
52708;SDS011;38606;52.986;6.980;2024-02-21T00:53:10;22.63;;;9.80;;
52708;SDS011;38606;52.986;6.980;2024-02-21T00:55:35;25.30;;;9.20;;
52708;SDS011;38606;52.986;6.980;2024-02-21T00:58:01;25.40;;;9.73;;
52708;SDS011;38606;52.986;6.980;2024-02-21T01:00:27;24.00;;;9.50;;
52708;SDS011;38606;52.986;6.980;2024-02-21T01:02:52;20.10;;;8.60;;
52708;SDS011;38606;52.986;6.980;2024-02-21T01:05:18;25.30;;;8.65;;
52708;SDS011;38606;52.986;6.980;2024-02-21T01:07:45;27.38;;;8.60;;
52708;SDS011;38606;52.986;6.980;2024-02-21T01:10:11;24.45;;;8.38;;
52708;SDS011;38606;52.986;6.980;2024-02-21T01:12:36;22.00;;;8.90;;
52708;SDS011;38606;52.986;6.980;2024-02-21T01:15:02;21.75;;;8.68;;
52708;SDS011;38606;52.986;6.980;2024-02-21T01:17:28;23.02;;;8.45;;
52708;SDS011;38606;52.986;6.980;2024-02-21T01:19:54;28.17;;;9.05;;
52708;SDS011;38606;52.986;6.980;2024-02-21T01:22:19;24.92;;;8.80;;
52708;SDS011;38606;52.986;6.980;2024-02-21T01:24:45;18.70;;;8.90;;
52708;SDS011;38606;52.986;6.980;2024-02-21T01:27:11;29.10;;;8.80;;
52708;SDS011;38606;52.986;6.980;2024-02-21T01:29:37;23.02;;;9.07;;
52708;SDS011;38606;52.986;6.980;2024-02-21T01:32:02;23.23;;;8.52;;
52708;SDS011;38606;52.986;6.980;2024-02-21T01:34:28;23.92;;;8.73;;
52708;SDS011;38606;52.986;6.980;2024-02-21T01:36:54;26.63;;;10.60;;
52708;SDS011;38606;52.986;6.980;2024-02-21T01:39:19;29.58;;;8.80;;
52708;SDS011;38606;52.986;6.980;2024-02-21T01:41:45;19.65;;;8.30;;
52708;SDS011;38606;52.986;6.980;2024-02-21T01:44:11;33.58;;;9.60;;
52708;SDS011;38606;52.986;6.980;2024-02-21T01:46:36;20.17;;;7.90;;
52708;SDS011;38606;52.986;6.980;2024-02-21T01:49:02;18.02;;;7.75;;
52708;SDS011;38606;52.986;6.980;2024-02-21T01:51:29;25.20;;;8.38;;
52708;SDS011;38606;52.986;6.980;2024-02-21T01:53:56;24.33;;;7.55;;
52708;SDS011;38606;52.986;6.980;2024-02-21T01:56:22;21.98;;;7.97;;
52708;SDS011;38606;52.986;6.980;2024-02-21T01:58:49;21.55;;;7.70;;
52708;SDS011;38606;52.986;6.980;2024-02-21T02:01:16;20.30;;;7.20;;
52708;SDS011;38606;52.986;6.980;2024-02-21T02:03:42;24.20;;;8.57;;
52708;SDS011;38606;52.986;6.980;2024-02-21T02:06:10;22.13;;;8.80;;
52708;SDS011;38606;52.986;6.980;2024-02-21T02:08:36;26.17;;;8.50;;
52708;SDS011;38606;52.986;6.980;2024-02-21T02:11:02;22.77;;;8.75;;
52708;SDS011;38606;52.986;6.980;2024-02-21T02:13:28;30.75;;;9.07;;
52708;SDS011;38606;52.986;6.980;2024-02-21T02:15:54;29.50;;;9.98;;
52708;SDS011;38606;52.986;6.980;2024-02-21T02:18:20;33.85;;;9.43;;
52708;SDS011;38606;52.986;6.980;2024-02-21T02:20:46;25.75;;;9.40;;
52708;SDS011;38606;52.986;6.980;2024-02-21T02:23:18;30.40;;;9.55;;
52708;SDS011;38606;52.986;6.980;2024-02-21T02:25:54;26.50;;;9.50;;
52708;SDS011;38606;52.986;6.980;2024-02-21T02:28:20;29.13;;;10.80;;
52708;SDS011;38606;52.986;6.980;2024-02-21T02:30:46;33.55;;;10.45;;
52708;SDS011;38606;52.986;6.980;2024-02-21T02:33:12;30.60;;;9.70;;
52708;SDS011;38606;52.986;6.980;2024-02-21T02:35:38;27.58;;;9.93;;
52708;SDS011;38606;52.986;6.980;2024-02-21T02:38:05;28.77;;;10.30;;
52708;SDS011;38606;52.986;6.980;2024-02-21T02:40:31;32.38;;;10.10;;
52708;SDS011;38606;52.986;6.980;2024-02-21T02:43:00;31.38;;;8.88;;
52708;SDS011;38606;52.986;6.980;2024-02-21T02:45:26;32.60;;;9.52;;
52708;SDS011;38606;52.986;6.980;2024-02-21T02:47:52;29.25;;;9.30;;
52708;SDS011;38606;52.986;6.980;2024-02-21T02:50:22;28.40;;;10.00;;
52708;SDS011;38606;52.986;6.980;2024-02-21T02:52:48;21.38;;;8.85;;
52708;SDS011;38606;52.986;6.980;2024-02-21T02:55:14;23.90;;;8.40;;
52708;SDS011;38606;52.986;6.980;2024-02-21T02:57:40;25.15;;;9.00;;
52708;SDS011;38606;52.986;6.980;2024-02-21T03:00:12;23.83;;;9.63;;
52708;SDS011;38606;52.986;6.980;2024-02-21T03:02:39;27.38;;;9.00;;
52708;SDS011;38606;52.986;6.980;2024-02-21T03:05:19;27.33;;;8.38;;
52708;SDS011;38606;52.986;6.980;2024-02-21T03:07:46;27.08;;;9.77;;
52708;SDS011;38606;52.986;6.980;2024-02-21T03:10:12;26.15;;;8.35;;
52708;SDS011;38606;52.986;6.980;2024-02-21T03:12:39;23.65;;;8.60;;
52708;SDS011;38606;52.986;6.980;2024-02-21T03:15:05;25.00;;;8.77;;
52708;SDS011;38606;52.986;6.980;2024-02-21T03:17:31;25.80;;;9.07;;
52708;SDS011;38606;52.986;6.980;2024-02-21T03:19:59;22.52;;;8.32;;
52708;SDS011;38606;52.986;6.980;2024-02-21T03:22:25;25.80;;;8.52;;
52708;SDS011;38606;52.986;6.980;2024-02-21T03:24:51;26.27;;;8.25;;
52708;SDS011;38606;52.986;6.980;2024-02-21T03:27:17;21.88;;;8.70;;
52708;SDS011;38606;52.986;6.980;2024-02-21T03:29:42;26.98;;;9.52;;
52708;SDS011;38606;52.986;6.980;2024-02-21T03:32:08;22.85;;;8.75;;
52708;SDS011;38606;52.986;6.980;2024-02-21T03:34:34;20.98;;;9.50;;
52708;SDS011;38606;52.986;6.980;2024-02-21T03:37:00;24.70;;;9.90;;
52708;SDS011;38606;52.986;6.980;2024-02-21T03:39:26;22.52;;;8.30;;
52708;SDS011;38606;52.986;6.980;2024-02-21T03:41:52;24.73;;;8.98;;
52708;SDS011;38606;52.986;6.980;2024-02-21T03:44:18;24.02;;;8.88;;
52708;SDS011;38606;52.986;6.980;2024-02-21T03:46:44;23.45;;;8.65;;
52708;SDS011;38606;52.986;6.980;2024-02-21T03:49:10;25.10;;;8.82;;
52708;SDS011;38606;52.986;6.980;2024-02-21T03:51:36;27.10;;;8.77;;
52708;SDS011;38606;52.986;6.980;2024-02-21T03:54:02;28.55;;;8.27;;
52708;SDS011;38606;52.986;6.980;2024-02-21T03:56:28;21.85;;;8.43;;
52708;SDS011;38606;52.986;6.980;2024-02-21T03:58:53;31.98;;;9.05;;
52708;SDS011;38606;52.986;6.980;2024-02-21T04:01:19;23.00;;;8.02;;
52708;SDS011;38606;52.986;6.980;2024-02-21T04:03:45;25.63;;;7.68;;
52708;SDS011;38606;52.986;6.980;2024-02-21T04:06:10;22.23;;;7.85;;
52708;SDS011;38606;52.986;6.980;2024-02-21T04:08:36;21.73;;;7.00;;
52708;SDS011;38606;52.986;6.980;2024-02-21T04:11:02;21.85;;;6.80;;
52708;SDS011;38606;52.986;6.980;2024-02-21T04:13:28;20.70;;;6.93;;
52708;SDS011;38606;52.986;6.980;2024-02-21T04:15:53;21.40;;;6.88;;
52708;SDS011;38606;52.986;6.980;2024-02-21T04:18:19;22.60;;;7.78;;
52708;SDS011;38606;52.986;6.980;2024-02-21T04:20:45;19.58;;;6.72;;
52708;SDS011;38606;52.986;6.980;2024-02-21T04:23:10;19.40;;;6.65;;
52708;SDS011;38606;52.986;6.980;2024-02-21T04:25:36;18.02;;;6.63;;
52708;SDS011;38606;52.986;6.980;2024-02-21T04:28:02;15.98;;;5.97;;
52708;SDS011;38606;52.986;6.980;2024-02-21T04:30:28;15.32;;;6.25;;
52708;SDS011;38606;52.986;6.980;2024-02-21T04:32:53;17.02;;;5.75;;
52708;SDS011;38606;52.986;6.980;2024-02-21T04:35:19;20.08;;;6.45;;
52708;SDS011;38606;52.986;6.980;2024-02-21T04:37:45;16.77;;;6.55;;
52708;SDS011;38606;52.986;6.980;2024-02-21T04:40:11;19.75;;;6.25;;
52708;SDS011;38606;52.986;6.980;2024-02-21T04:42:38;19.17;;;6.28;;
52708;SDS011;38606;52.986;6.980;2024-02-21T04:45:04;25.27;;;6.57;;
52708;SDS011;38606;52.986;6.980;2024-02-21T04:47:30;21.58;;;6.97;;
52708;SDS011;38606;52.986;6.980;2024-02-21T04:49:56;21.13;;;6.80;;
52708;SDS011;38606;52.986;6.980;2024-02-21T04:52:21;21.17;;;6.63;;
52708;SDS011;38606;52.986;6.980;2024-02-21T04:54:47;23.30;;;6.90;;
52708;SDS011;38606;52.986;6.980;2024-02-21T04:57:13;20.60;;;7.32;;
52708;SDS011;38606;52.986;6.980;2024-02-21T04:59:43;18.30;;;6.53;;
52708;SDS011;38606;52.986;6.980;2024-02-21T05:02:09;28.15;;;7.50;;
52708;SDS011;38606;52.986;6.980;2024-02-21T05:04:36;22.58;;;6.88;;
52708;SDS011;38606;52.986;6.980;2024-02-21T05:07:03;23.17;;;7.35;;
52708;SDS011;38606;52.986;6.980;2024-02-21T05:09:29;23.60;;;8.23;;
52708;SDS011;38606;52.986;6.980;2024-02-21T05:11:55;27.55;;;7.45;;
52708;SDS011;38606;52.986;6.980;2024-02-21T05:14:21;24.35;;;7.85;;
52708;SDS011;38606;52.986;6.980;2024-02-21T05:16:46;21.73;;;7.70;;
52708;SDS011;38606;52.986;6.980;2024-02-21T05:19:12;27.67;;;8.27;;
52708;SDS011;38606;52.986;6.980;2024-02-21T05:21:38;32.67;;;8.73;;
52708;SDS011;38606;52.986;6.980;2024-02-21T05:24:03;35.88;;;8.40;;
52708;SDS011;38606;52.986;6.980;2024-02-21T05:26:29;27.40;;;9.10;;
52708;SDS011;38606;52.986;6.980;2024-02-21T05:28:55;25.55;;;8.63;;
52708;SDS011;38606;52.986;6.980;2024-02-21T05:31:21;32.17;;;9.70;;
52708;SDS011;38606;52.986;6.980;2024-02-21T05:33:47;27.50;;;9.07;;
52708;SDS011;38606;52.986;6.980;2024-02-21T05:36:13;25.60;;;9.20;;
52708;SDS011;38606;52.986;6.980;2024-02-21T05:38:39;33.00;;;9.93;;
52708;SDS011;38606;52.986;6.980;2024-02-21T05:41:05;43.28;;;10.98;;
52708;SDS011;38606;52.986;6.980;2024-02-21T05:43:31;32.58;;;10.65;;
52708;SDS011;38606;52.986;6.980;2024-02-21T05:45:56;37.58;;;10.45;;
52708;SDS011;38606;52.986;6.980;2024-02-21T05:48:22;41.78;;;11.50;;
52708;SDS011;38606;52.986;6.980;2024-02-21T05:50:49;44.85;;;11.80;;
52708;SDS011;38606;52.986;6.980;2024-02-21T05:53:15;45.20;;;12.82;;
52708;SDS011;38606;52.986;6.980;2024-02-21T05:55:41;40.70;;;13.55;;
52708;SDS011;38606;52.986;6.980;2024-02-21T05:58:07;47.83;;;13.82;;
52708;SDS011;38606;52.986;6.980;2024-02-21T06:00:35;50.28;;;13.85;;
52708;SDS011;38606;52.986;6.980;2024-02-21T06:03:01;49.83;;;14.85;;
52708;SDS011;38606;52.986;6.980;2024-02-21T06:05:27;46.97;;;13.52;;
52708;SDS011;38606;52.986;6.980;2024-02-21T06:07:53;38.38;;;13.48;;
52708;SDS011;38606;52.986;6.980;2024-02-21T06:10:19;45.70;;;14.07;;
52708;SDS011;38606;52.986;6.980;2024-02-21T06:12:44;47.85;;;13.40;;
52708;SDS011;38606;52.986;6.980;2024-02-21T06:15:10;51.97;;;13.75;;
52708;SDS011;38606;52.986;6.980;2024-02-21T06:17:36;47.75;;;13.57;;
52708;SDS011;38606;52.986;6.980;2024-02-21T06:20:01;47.85;;;12.43;;
52708;SDS011;38606;52.986;6.980;2024-02-21T06:22:28;39.78;;;13.73;;
52708;SDS011;38606;52.986;6.980;2024-02-21T06:24:55;43.85;;;13.00;;
52708;SDS011;38606;52.986;6.980;2024-02-21T06:27:20;43.90;;;12.45;;
52708;SDS011;38606;52.986;6.980;2024-02-21T06:29:46;46.67;;;12.75;;
52708;SDS011;38606;52.986;6.980;2024-02-21T06:32:12;46.53;;;14.05;;
52708;SDS011;38606;52.986;6.980;2024-02-21T06:34:38;44.65;;;12.40;;
52708;SDS011;38606;52.986;6.980;2024-02-21T06:37:03;53.92;;;12.60;;
52708;SDS011;38606;52.986;6.980;2024-02-21T06:39:29;54.88;;;13.55;;
52708;SDS011;38606;52.986;6.980;2024-02-21T06:41:55;49.38;;;13.50;;
52708;SDS011;38606;52.986;6.980;2024-02-21T06:44:23;46.83;;;12.98;;
52708;SDS011;38606;52.986;6.980;2024-02-21T06:46:49;39.47;;;13.02;;
52708;SDS011;38606;52.986;6.980;2024-02-21T06:49:15;48.10;;;13.18;;
52708;SDS011;38606;52.986;6.980;2024-02-21T06:51:44;47.47;;;12.73;;
52708;SDS011;38606;52.986;6.980;2024-02-21T06:54:10;51.22;;;13.90;;
52708;SDS011;38606;52.986;6.980;2024-02-21T06:56:36;45.03;;;11.85;;
52708;SDS011;38606;52.986;6.980;2024-02-21T06:59:02;42.50;;;12.48;;
52708;SDS011;38606;52.986;6.980;2024-02-21T07:01:29;40.83;;;11.48;;
52708;SDS011;38606;52.986;6.980;2024-02-21T07:03:55;43.20;;;12.30;;
52708;SDS011;38606;52.986;6.980;2024-02-21T07:06:21;36.63;;;11.85;;
52708;SDS011;38606;52.986;6.980;2024-02-21T07:08:47;41.78;;;11.55;;
52708;SDS011;38606;52.986;6.980;2024-02-21T07:11:13;37.05;;;11.95;;
52708;SDS011;38606;52.986;6.980;2024-02-21T07:13:39;39.85;;;11.23;;
52708;SDS011;38606;52.986;6.980;2024-02-21T07:16:05;45.10;;;12.25;;
52708;SDS011;38606;52.986;6.980;2024-02-21T07:18:32;37.33;;;11.52;;
52708;SDS011;38606;52.986;6.980;2024-02-21T07:20:57;37.42;;;11.32;;
52708;SDS011;38606;52.986;6.980;2024-02-21T07:23:23;38.33;;;11.50;;
52708;SDS011;38606;52.986;6.980;2024-02-21T07:25:49;38.08;;;12.32;;
52708;SDS011;38606;52.986;6.980;2024-02-21T07:28:15;48.45;;;12.95;;
52708;SDS011;38606;52.986;6.980;2024-02-21T07:30:41;42.45;;;12.63;;
52708;SDS011;38606;52.986;6.980;2024-02-21T07:33:07;43.60;;;13.52;;
52708;SDS011;38606;52.986;6.980;2024-02-21T07:35:33;34.40;;;13.57;;
52708;SDS011;38606;52.986;6.980;2024-02-21T07:37:59;40.20;;;13.82;;
52708;SDS011;38606;52.986;6.980;2024-02-21T07:40:25;38.50;;;13.57;;
52708;SDS011;38606;52.986;6.980;2024-02-21T07:42:51;34.25;;;13.05;;
52708;SDS011;38606;52.986;6.980;2024-02-21T07:45:16;33.58;;;13.70;;
52708;SDS011;38606;52.986;6.980;2024-02-21T07:47:43;31.52;;;13.25;;
52708;SDS011;38606;52.986;6.980;2024-02-21T07:50:09;30.90;;;13.05;;
52708;SDS011;38606;52.986;6.980;2024-02-21T07:52:35;35.88;;;14.77;;
52708;SDS011;38606;52.986;6.980;2024-02-21T07:55:00;38.50;;;14.60;;
52708;SDS011;38606;52.986;6.980;2024-02-21T07:57:26;38.63;;;16.15;;
52708;SDS011;38606;52.986;6.980;2024-02-21T07:59:53;45.17;;;15.82;;
52708;SDS011;38606;52.986;6.980;2024-02-21T08:02:19;39.22;;;15.48;;
52708;SDS011;38606;52.986;6.980;2024-02-21T08:04:44;41.65;;;15.55;;
52708;SDS011;38606;52.986;6.980;2024-02-21T08:07:10;37.75;;;15.63;;
52708;SDS011;38606;52.986;6.980;2024-02-21T08:09:36;39.95;;;16.42;;
52708;SDS011;38606;52.986;6.980;2024-02-21T08:12:03;36.33;;;16.73;;
52708;SDS011;38606;52.986;6.980;2024-02-21T08:14:29;39.97;;;17.20;;
52708;SDS011;38606;52.986;6.980;2024-02-21T08:16:55;44.25;;;16.92;;
52708;SDS011;38606;52.986;6.980;2024-02-21T08:19:21;44.28;;;17.98;;
52708;SDS011;38606;52.986;6.980;2024-02-21T08:21:49;40.35;;;16.45;;
52708;SDS011;38606;52.986;6.980;2024-02-21T08:24:15;40.53;;;16.13;;
52708;SDS011;38606;52.986;6.980;2024-02-21T08:26:43;45.28;;;16.88;;
52708;SDS011;38606;52.986;6.980;2024-02-21T08:29:10;32.60;;;16.00;;
52708;SDS011;38606;52.986;6.980;2024-02-21T08:31:36;35.75;;;16.85;;
52708;SDS011;38606;52.986;6.980;2024-02-21T08:34:02;39.25;;;16.88;;
52708;SDS011;38606;52.986;6.980;2024-02-21T08:36:33;37.83;;;16.92;;
52708;SDS011;38606;52.986;6.980;2024-02-21T08:38:59;40.70;;;16.58;;
52708;SDS011;38606;52.986;6.980;2024-02-21T08:41:25;42.40;;;17.67;;
52708;SDS011;38606;52.986;6.980;2024-02-21T08:43:52;36.72;;;16.83;;
52708;SDS011;38606;52.986;6.980;2024-02-21T08:46:21;34.40;;;18.75;;
52708;SDS011;38606;52.986;6.980;2024-02-21T08:48:51;43.63;;;18.25;;
52708;SDS011;38606;52.986;6.980;2024-02-21T08:51:18;39.83;;;18.08;;
52708;SDS011;38606;52.986;6.980;2024-02-21T08:53:44;35.08;;;18.17;;
52708;SDS011;38606;52.986;6.980;2024-02-21T08:56:11;35.38;;;19.67;;
52708;SDS011;38606;52.986;6.980;2024-02-21T08:58:37;36.28;;;19.45;;
52708;SDS011;38606;52.986;6.980;2024-02-21T09:01:04;41.72;;;19.58;;
52708;SDS011;38606;52.986;6.980;2024-02-21T09:03:33;34.22;;;19.45;;
52708;SDS011;38606;52.986;6.980;2024-02-21T09:05:59;32.10;;;19.90;;
52708;SDS011;38606;52.986;6.980;2024-02-21T09:08:25;41.63;;;21.02;;
52708;SDS011;38606;52.986;6.980;2024-02-21T09:10:52;38.53;;;20.83;;
52708;SDS011;38606;52.986;6.980;2024-02-21T09:13:18;38.33;;;20.90;;
52708;SDS011;38606;52.986;6.980;2024-02-21T09:15:44;38.78;;;20.73;;
52708;SDS011;38606;52.986;6.980;2024-02-21T09:18:10;37.47;;;19.25;;
52708;SDS011;38606;52.986;6.980;2024-02-21T09:20:36;36.08;;;20.58;;
52708;SDS011;38606;52.986;6.980;2024-02-21T09:23:01;35.85;;;20.73;;
52708;SDS011;38606;52.986;6.980;2024-02-21T09:25:27;38.60;;;21.17;;
52708;SDS011;38606;52.986;6.980;2024-02-21T09:27:56;42.50;;;21.05;;
52708;SDS011;38606;52.986;6.980;2024-02-21T09:30:23;32.58;;;20.30;;
52708;SDS011;38606;52.986;6.980;2024-02-21T09:32:49;37.30;;;19.55;;
52708;SDS011;38606;52.986;6.980;2024-02-21T09:35:15;40.28;;;21.30;;
52708;SDS011;38606;52.986;6.980;2024-02-21T09:37:41;35.50;;;19.33;;
52708;SDS011;38606;52.986;6.980;2024-02-21T09:40:07;37.88;;;20.13;;
52708;SDS011;38606;52.986;6.980;2024-02-21T09:45:03;31.70;;;19.15;;
52708;SDS011;38606;52.986;6.980;2024-02-21T09:47:34;36.78;;;19.67;;
52708;SDS011;38606;52.986;6.980;2024-02-21T09:50:08;34.38;;;19.52;;
52708;SDS011;38606;52.986;6.980;2024-02-21T09:52:35;34.13;;;17.98;;
52708;SDS011;38606;52.986;6.980;2024-02-21T09:55:02;31.52;;;18.63;;
52708;SDS011;38606;52.986;6.980;2024-02-21T09:57:30;33.50;;;19.27;;
52708;SDS011;38606;52.986;6.980;2024-02-21T09:59:56;36.38;;;20.10;;
52708;SDS011;38606;52.986;6.980;2024-02-21T10:02:24;37.47;;;19.10;;
52708;SDS011;38606;52.986;6.980;2024-02-21T10:04:50;33.85;;;19.00;;
52708;SDS011;38606;52.986;6.980;2024-02-21T10:07:15;35.58;;;18.58;;
52708;SDS011;38606;52.986;6.980;2024-02-21T10:09:41;32.17;;;19.05;;
52708;SDS011;38606;52.986;6.980;2024-02-21T10:12:11;35.10;;;17.98;;
52708;SDS011;38606;52.986;6.980;2024-02-21T10:14:37;32.92;;;18.77;;
52708;SDS011;38606;52.986;6.980;2024-02-21T10:17:03;29.77;;;18.10;;
52708;SDS011;38606;52.986;6.980;2024-02-21T10:19:34;29.25;;;17.73;;
52708;SDS011;38606;52.986;6.980;2024-02-21T10:24:30;30.23;;;17.20;;
52708;SDS011;38606;52.986;6.980;2024-02-21T10:27:04;29.67;;;17.50;;
52708;SDS011;38606;52.986;6.980;2024-02-21T10:29:33;31.88;;;17.42;;
52708;SDS011;38606;52.986;6.980;2024-02-21T10:32:03;31.15;;;17.33;;
52708;SDS011;38606;52.986;6.980;2024-02-21T10:34:39;29.65;;;16.25;;
52708;SDS011;38606;52.986;6.980;2024-02-21T10:37:06;23.33;;;14.93;;
52708;SDS011;38606;52.986;6.980;2024-02-21T10:39:34;25.25;;;14.70;;
52708;SDS011;38606;52.986;6.980;2024-02-21T10:42:03;27.25;;;14.18;;
52708;SDS011;38606;52.986;6.980;2024-02-21T10:44:29;28.77;;;14.10;;
52708;SDS011;38606;52.986;6.980;2024-02-21T10:46:59;25.27;;;15.10;;
52708;SDS011;38606;52.986;6.980;2024-02-21T10:49:29;27.65;;;13.70;;
52708;SDS011;38606;52.986;6.980;2024-02-21T10:52:17;31.48;;;13.80;;
52708;SDS011;38606;52.986;6.980;2024-02-21T10:55:14;24.02;;;13.05;;
52708;SDS011;38606;52.986;6.980;2024-02-21T10:57:46;27.88;;;13.25;;
52708;SDS011;38606;52.986;6.980;2024-02-21T11:00:14;24.83;;;13.38;;
52708;SDS011;38606;52.986;6.980;2024-02-21T11:02:41;27.88;;;12.82;;
52708;SDS011;38606;52.986;6.980;2024-02-21T11:05:07;27.35;;;13.00;;
52708;SDS011;38606;52.986;6.980;2024-02-21T11:07:35;18.25;;;12.30;;
52708;SDS011;38606;52.986;6.980;2024-02-21T11:10:03;24.73;;;12.45;;
52708;SDS011;38606;52.986;6.980;2024-02-21T11:12:32;23.98;;;12.32;;
52708;SDS011;38606;52.986;6.980;2024-02-21T11:15:07;20.60;;;11.63;;
52708;SDS011;38606;52.986;6.980;2024-02-21T11:17:33;21.70;;;11.57;;
52708;SDS011;38606;52.986;6.980;2024-02-21T11:20:10;22.15;;;11.25;;
52708;SDS011;38606;52.986;6.980;2024-02-21T11:22:42;27.52;;;11.60;;
52708;SDS011;38606;52.986;6.980;2024-02-21T11:25:08;21.88;;;10.40;;
52708;SDS011;38606;52.986;6.980;2024-02-21T11:27:36;20.85;;;10.52;;
52708;SDS011;38606;52.986;6.980;2024-02-21T11:30:04;21.70;;;10.75;;
52708;SDS011;38606;52.986;6.980;2024-02-21T11:32:31;16.90;;;9.75;;
52708;SDS011;38606;52.986;6.980;2024-02-21T11:34:57;19.40;;;10.35;;
52708;SDS011;38606;52.986;6.980;2024-02-21T11:37:29;20.15;;;10.70;;
52708;SDS011;38606;52.986;6.980;2024-02-21T11:39:56;17.55;;;10.77;;
52708;SDS011;38606;52.986;6.980;2024-02-21T11:42:22;20.13;;;9.75;;
52708;SDS011;38606;52.986;6.980;2024-02-21T11:44:50;21.13;;;10.45;;
52708;SDS011;38606;52.986;6.980;2024-02-21T11:47:17;19.77;;;9.82;;
52708;SDS011;38606;52.986;6.980;2024-02-21T11:49:45;21.27;;;9.65;;
52708;SDS011;38606;52.986;6.980;2024-02-21T11:52:12;20.08;;;10.45;;
52708;SDS011;38606;52.986;6.980;2024-02-21T11:54:40;15.20;;;9.25;;
52708;SDS011;38606;52.986;6.980;2024-02-21T11:57:06;17.10;;;9.18;;
52708;SDS011;38606;52.986;6.980;2024-02-21T11:59:33;18.10;;;9.05;;
52708;SDS011;38606;52.986;6.980;2024-02-21T12:02:00;20.45;;;10.20;;
52708;SDS011;38606;52.986;6.980;2024-02-21T12:04:26;17.35;;;9.23;;
52708;SDS011;38606;52.986;6.980;2024-02-21T12:06:55;17.90;;;9.15;;
52708;SDS011;38606;52.986;6.980;2024-02-21T12:09:22;15.57;;;9.00;;
52708;SDS011;38606;52.986;6.980;2024-02-21T12:12:10;14.05;;;9.10;;
52708;SDS011;38606;52.986;6.980;2024-02-21T12:14:35;16.60;;;8.30;;
52708;SDS011;38606;52.986;6.980;2024-02-21T12:17:01;13.63;;;9.10;;
52708;SDS011;38606;52.986;6.980;2024-02-21T12:19:31;18.65;;;9.20;;
52708;SDS011;38606;52.986;6.980;2024-02-21T12:22:01;15.18;;;7.95;;
52708;SDS011;38606;52.986;6.980;2024-02-21T12:24:30;14.15;;;7.95;;
52708;SDS011;38606;52.986;6.980;2024-02-21T12:26:56;12.68;;;7.50;;
52708;SDS011;38606;52.986;6.980;2024-02-21T12:29:23;12.65;;;7.60;;
52708;SDS011;38606;52.986;6.980;2024-02-21T12:31:50;15.02;;;8.15;;
52708;SDS011;38606;52.986;6.980;2024-02-21T12:34:16;15.20;;;7.95;;
52708;SDS011;38606;52.986;6.980;2024-02-21T12:36:43;14.35;;;8.68;;
52708;SDS011;38606;52.986;6.980;2024-02-21T12:39:09;15.73;;;8.20;;
52708;SDS011;38606;52.986;6.980;2024-02-21T12:41:36;16.00;;;8.20;;
52708;SDS011;38606;52.986;6.980;2024-02-21T12:44:09;14.40;;;8.85;;
52708;SDS011;38606;52.986;6.980;2024-02-21T12:46:39;14.93;;;7.85;;
52708;SDS011;38606;52.986;6.980;2024-02-21T12:49:05;13.82;;;7.65;;
52708;SDS011;38606;52.986;6.980;2024-02-21T12:51:32;13.82;;;7.28;;
52708;SDS011;38606;52.986;6.980;2024-02-21T12:53:58;12.82;;;7.70;;
52708;SDS011;38606;52.986;6.980;2024-02-21T12:56:26;14.00;;;8.27;;
52708;SDS011;38606;52.986;6.980;2024-02-21T12:58:52;14.90;;;7.90;;
52708;SDS011;38606;52.986;6.980;2024-02-21T13:01:19;12.63;;;6.72;;
52708;SDS011;38606;52.986;6.980;2024-02-21T13:03:46;13.43;;;6.90;;
52708;SDS011;38606;52.986;6.980;2024-02-21T13:06:12;11.25;;;6.57;;
52708;SDS011;38606;52.986;6.980;2024-02-21T13:08:38;13.38;;;6.68;;
52708;SDS011;38606;52.986;6.980;2024-02-21T13:11:04;8.45;;;5.60;;
52708;SDS011;38606;52.986;6.980;2024-02-21T13:13:30;10.20;;;5.28;;
52708;SDS011;38606;52.986;6.980;2024-02-21T13:16:00;7.00;;;4.80;;
52708;SDS011;38606;52.986;6.980;2024-02-21T13:18:27;6.03;;;4.20;;
52708;SDS011;38606;52.986;6.980;2024-02-21T13:20:52;10.02;;;3.97;;
52708;SDS011;38606;52.986;6.980;2024-02-21T13:23:18;6.25;;;3.92;;
52708;SDS011;38606;52.986;6.980;2024-02-21T13:25:46;6.15;;;4.75;;
52708;SDS011;38606;52.986;6.980;2024-02-21T13:28:12;7.10;;;4.00;;
52708;SDS011;38606;52.986;6.980;2024-02-21T13:30:39;9.13;;;4.20;;
52708;SDS011;38606;52.986;6.980;2024-02-21T13:33:06;9.10;;;4.18;;
52708;SDS011;38606;52.986;6.980;2024-02-21T13:35:32;7.53;;;4.28;;
52708;SDS011;38606;52.986;6.980;2024-02-21T13:37:58;7.72;;;4.35;;
52708;SDS011;38606;52.986;6.980;2024-02-21T13:40:23;8.73;;;4.53;;
52708;SDS011;38606;52.986;6.980;2024-02-21T13:42:50;8.35;;;4.25;;
52708;SDS011;38606;52.986;6.980;2024-02-21T13:45:16;6.22;;;4.30;;
52708;SDS011;38606;52.986;6.980;2024-02-21T13:47:42;7.70;;;4.38;;
52708;SDS011;38606;52.986;6.980;2024-02-21T13:50:08;8.80;;;5.05;;
52708;SDS011;38606;52.986;6.980;2024-02-21T13:52:37;10.10;;;4.88;;
52708;SDS011;38606;52.986;6.980;2024-02-21T13:55:03;8.23;;;5.03;;
52708;SDS011;38606;52.986;6.980;2024-02-21T13:57:29;14.50;;;5.50;;
52708;SDS011;38606;52.986;6.980;2024-02-21T13:59:54;7.75;;;5.30;;
52708;SDS011;38606;52.986;6.980;2024-02-21T14:02:20;11.15;;;5.30;;
52708;SDS011;38606;52.986;6.980;2024-02-21T14:04:46;8.85;;;5.40;;
52708;SDS011;38606;52.986;6.980;2024-02-21T14:07:12;9.15;;;5.38;;
52708;SDS011;38606;52.986;6.980;2024-02-21T14:09:38;9.80;;;4.60;;
52708;SDS011;38606;52.986;6.980;2024-02-21T14:12:04;8.35;;;5.43;;
52708;SDS011;38606;52.986;6.980;2024-02-21T14:14:33;9.02;;;5.45;;
52708;SDS011;38606;52.986;6.980;2024-02-21T14:17:02;10.38;;;5.30;;
52708;SDS011;38606;52.986;6.980;2024-02-21T14:19:29;13.45;;;5.85;;
52708;SDS011;38606;52.986;6.980;2024-02-21T14:21:55;7.57;;;5.00;;
52708;SDS011;38606;52.986;6.980;2024-02-21T14:24:21;11.60;;;5.43;;
52708;SDS011;38606;52.986;6.980;2024-02-21T14:26:48;14.50;;;5.75;;
52708;SDS011;38606;52.986;6.980;2024-02-21T14:29:14;13.63;;;5.88;;
52708;SDS011;38606;52.986;6.980;2024-02-21T14:31:39;9.63;;;5.40;;